Time;durP1;ratioP1;P1;durP2;ratioP2;P2;SDS_P1;SDS_P2;PMS_P1;PMS_P2;Temp;Humidity;BMP_temperature;BMP_pressure;BME280_temperature;BME280_humidity;BME280_pressure;Samples;Min_cycle;Max_cycle;Signal;HPM_P1;HPM_P2
2020/12/06 00:01:37;;;;;;;13.57;9.90;;;;;;;3.75;100.00;99744.19;5090199;28;20218;-71
2020/12/06 00:04:07;;;;;;;13.10;10.50;;;;;;;3.60;100.00;99741.31;5068937;28;20294;-71
2020/12/06 00:06:32;;;;;;;15.20;11.30;;;;;;;3.58;100.00;99731.91;5071414;28;20237;-71
2020/12/06 00:08:58;;;;;;;15.70;12.17;;;;;;;3.68;100.00;99711.38;5053224;28;20202;-70
2020/12/06 00:11:23;;;;;;;14.83;11.57;;;;;;;3.68;100.00;99722.09;5016374;28;20219;-71
2020/12/06 00:13:51;;;;;;;15.23;11.63;;;;;;;3.67;100.00;99709.72;5012787;28;20194;-71
2020/12/06 00:16:17;;;;;;;14.97;11.33;;;;;;;3.66;100.00;99712.66;4995726;28;20247;-71
2020/12/06 00:18:44;;;;;;;17.80;13.03;;;;;;;3.63;100.00;99705.94;5013108;28;20184;-71
2020/12/06 00:21:14;;;;;;;14.83;10.83;;;;;;;3.63;100.00;99703.25;5018654;28;20241;-71
2020/12/06 00:23:39;;;;;;;15.70;12.23;;;;;;;3.48;100.00;99694.22;5051637;28;20190;-71
2020/12/06 00:26:05;;;;;;;15.43;11.97;;;;;;;3.36;100.00;99657.84;5024608;28;20709;-70
2020/12/06 00:28:31;;;;;;;17.70;12.73;;;;;;;3.25;100.00;99637.31;5016748;28;20192;-71
2020/12/06 00:30:58;;;;;;;16.97;12.77;;;;;;;3.35;100.00;99650.84;5056547;28;20223;-71
2020/12/06 00:33:24;;;;;;;17.07;12.93;;;;;;;3.41;100.00;99665.91;5053928;28;20588;-71
2020/12/06 00:35:53;;;;;;;17.23;12.70;;;;;;;3.48;100.00;99673.56;5046510;28;20290;-71
2020/12/06 00:38:23;;;;;;;16.80;12.60;;;;;;;3.38;100.00;99685.22;5029308;28;20197;-71
2020/12/06 00:40:49;;;;;;;17.07;13.00;;;;;;;3.48;100.00;99692.34;5004606;28;20219;-71
2020/12/06 00:43:14;;;;;;;16.47;12.77;;;;;;;3.57;100.00;99685.47;5034941;28;20191;-71
2020/12/06 00:45:40;;;;;;;17.33;13.33;;;;;;;3.70;100.00;99685.09;5035328;28;20235;-72
2020/12/06 00:48:05;;;;;;;17.00;13.17;;;;;;;3.68;100.00;99692.56;5036649;28;20180;-71
2020/12/06 00:50:32;;;;;;;16.30;12.93;;;;;;;3.68;100.00;99700.63;5048855;28;20708;-71
2020/12/06 00:52:57;;;;;;;14.97;11.00;;;;;;;3.47;100.00;99703.31;5045393;28;20187;-71
2020/12/06 00:55:23;;;;;;;14.57;11.13;;;;;;;3.48;100.00;99700.38;5040937;28;20210;-71
2020/12/06 00:57:49;;;;;;;13.60;10.73;;;;;;;3.46;100.00;99707.03;5059235;28;20174;-71
2020/12/06 01:00:15;;;;;;;13.83;10.60;;;;;;;3.33;100.00;99722.72;5092276;28;20189;-72
2020/12/06 01:02:41;;;;;;;13.17;10.20;;;;;;;3.38;100.00;99752.31;5076162;28;20606;-71
2020/12/06 01:05:06;;;;;;;12.80;10.37;;;;;;;3.53;100.00;99750.63;5074988;28;20256;-71
2020/12/06 01:07:38;;;;;;;15.90;11.77;;;;;;;3.61;100.00;99750.19;5085278;28;20726;-71
2020/12/06 01:10:08;;;;;;;14.27;11.60;;;;;;;3.73;100.00;99754.34;5030913;28;20186;-71
2020/12/06 01:12:35;;;;;;;12.13;9.83;;;;;;;3.94;100.00;99758.94;5035188;28;20211;-70
2020/12/06 01:15:00;;;;;;;16.13;10.97;;;;;;;3.93;100.00;99758.09;5018803;28;20237;-71
2020/12/06 01:17:26;;;;;;;14.47;10.93;;;;;;;3.88;100.00;99759.91;5063750;28;20267;-71
2020/12/06 01:19:56;;;;;;;14.97;11.37;;;;;;;3.72;100.00;99776.91;5066099;28;20190;-71
2020/12/06 01:22:22;;;;;;;13.93;11.50;;;;;;;3.90;100.00;99771.19;5054094;28;20218;-71
2020/12/06 01:24:50;;;;;;;13.73;11.00;;;;;;;3.81;100.00;99764.69;5046484;28;20211;-71
2020/12/06 01:27:16;;;;;;;14.00;11.33;;;;;;;3.98;100.00;99778.84;5054722;28;20210;-71
2020/12/06 01:29:44;;;;;;;13.30;10.60;;;;;;;4.04;100.00;99769.78;5055620;28;20179;-71
2020/12/06 01:32:12;;;;;;;14.10;11.53;;;;;;;4.08;99.76;99760.13;5054568;28;20707;-71
2020/12/06 01:34:38;;;;;;;16.40;12.67;;;;;;;3.82;100.00;99760.13;5054107;28;20266;-71
2020/12/06 01:37:03;;;;;;;15.67;12.70;;;;;;;3.87;100.00;99753.72;5037638;28;20234;-71
2020/12/06 01:39:29;;;;;;;17.13;13.20;;;;;;;3.73;100.00;99740.94;5075982;28;20183;-71
2020/12/06 01:41:55;;;;;;;17.93;13.47;;;;;;;3.66;100.00;99729.56;5042149;28;20703;-71
2020/12/06 01:44:26;;;;;;;19.90;13.43;;;;;;;3.48;100.00;99721.84;5054676;28;20218;-71
2020/12/06 01:46:52;;;;;;;19.30;13.63;;;;;;;3.62;100.00;99712.34;5054888;28;20231;-71
2020/12/06 01:49:21;;;;;;;17.90;14.03;;;;;;;3.56;100.00;99691.09;5038474;28;20194;-72
2020/12/06 01:51:48;;;;;;;21.63;15.73;;;;;;;3.56;100.00;99691.88;5056128;28;20714;-70
2020/12/06 01:54:14;;;;;;;19.50;14.83;;;;;;;3.67;100.00;99712.41;5081442;28;20270;-71
2020/12/06 01:56:39;;;;;;;20.20;15.20;;;;;;;3.87;100.00;99726.06;5090926;28;20309;-71
2020/12/06 01:59:05;;;;;;;16.57;13.43;;;;;;;3.92;100.00;99735.00;5091941;28;20182;-71
2020/12/06 02:01:30;;;;;;;19.17;15.30;;;;;;;4.13;100.00;99719.91;5074298;28;20253;-71
2020/12/06 02:03:56;;;;;;;18.77;14.77;;;;;;;4.15;100.00;99715.09;5054645;28;20190;-71
2020/12/06 02:06:24;;;;;;;19.93;14.17;;;;;;;4.17;99.80;99710.28;5056854;28;20214;-71
2020/12/06 02:08:49;;;;;;;18.50;14.20;;;;;;;4.13;100.00;99709.97;5056386;28;20191;-71
2020/12/06 02:11:36;;;;;;;17.73;14.20;;;;;;;3.97;100.00;99710.88;5017950;28;20255;-71
2020/12/06 02:14:02;;;;;;;20.00;13.93;;;;;;;4.19;100.00;99718.88;5051232;28;20190;-71
2020/12/06 02:16:32;;;;;;;19.20;14.37;;;;;;;4.30;99.81;99729.47;5038036;28;20736;-71
2020/12/06 02:18:57;;;;;;;18.47;13.70;;;;;;;4.33;99.02;99726.28;4998978;28;20191;-71
2020/12/06 02:21:23;;;;;;;18.90;13.83;;;;;;;4.34;99.00;99723.34;5037476;28;20223;-71
2020/12/06 02:23:49;;;;;;;16.77;13.87;;;;;;;4.38;98.42;99708.31;5050797;28;20676;-71
2020/12/06 02:26:14;;;;;;;20.00;14.53;;;;;;;4.24;98.94;99707.13;5062822;28;20226;-71
2020/12/06 02:28:42;;;;;;;16.43;13.37;;;;;;;4.13;99.52;99693.84;5057267;28;20239;-71
2020/12/06 02:31:11;;;;;;;18.53;14.40;;;;;;;4.01;100.00;99689.69;5090446;28;20267;-71
2020/12/06 02:33:38;;;;;;;20.70;14.13;;;;;;;3.98;100.00;99693.69;5074831;28;20162;-71
2020/12/06 02:36:04;;;;;;;20.13;14.30;;;;;;;4.06;100.00;99698.59;5089851;28;20762;-71
2020/12/06 02:38:30;;;;;;;20.17;14.47;;;;;;;4.04;100.00;99698.06;5042035;28;20218;-71
2020/12/06 02:40:56;;;;;;;18.97;13.97;;;;;;;3.96;100.00;99711.13;5078317;28;20222;-71
2020/12/06 02:43:22;;;;;;;18.97;14.73;;;;;;;4.01;100.00;99720.06;5070289;28;20577;-71
2020/12/06 02:45:48;;;;;;;16.73;13.90;;;;;;;4.11;100.00;99727.41;5069800;28;20234;-71
2020/12/06 02:48:13;;;;;;;19.60;14.40;;;;;;;4.16;99.93;99730.13;5069492;28;20190;-71
2020/12/06 02:50:39;;;;;;;17.50;14.03;;;;;;;4.10;99.84;99731.94;5052972;28;20219;-71
2020/12/06 02:53:08;;;;;;;18.67;13.83;;;;;;;4.20;99.81;99725.88;5050957;28;20710;-71
2020/12/06 02:55:33;;;;;;;16.53;13.00;;;;;;;4.15;100.00;99717.78;5069288;28;20219;-71
2020/12/06 02:57:59;;;;;;;19.77;15.17;;;;;;;4.20;99.79;99716.75;5037241;28;20187;-71
2020/12/06 03:00:25;;;;;;;18.37;14.07;;;;;;;4.28;99.57;99713.59;5053467;28;20192;-71
2020/12/06 03:02:50;;;;;;;18.50;14.77;;;;;;;4.21;99.55;99706.81;5053035;28;20183;-71
2020/12/06 03:05:17;;;;;;;19.63;14.37;;;;;;;4.10;100.00;99705.09;5036167;28;20218;-71
2020/12/06 03:07:42;;;;;;;18.93;14.90;;;;;;;4.06;100.00;99703.97;5062708;28;20191;-71
2020/12/06 03:10:08;;;;;;;19.13;14.63;;;;;;;3.94;100.00;99715.97;5026221;28;20191;-71
2020/12/06 03:12:34;;;;;;;19.07;14.80;;;;;;;3.98;100.00;99717.88;5037870;28;20194;-71
2020/12/06 03:15:00;;;;;;;17.53;14.33;;;;;;;4.16;100.00;99719.38;5054866;28;20679;-71
2020/12/06 03:17:26;;;;;;;18.93;14.67;;;;;;;4.24;100.00;99720.53;5071800;28;20280;-71
2020/12/06 03:19:51;;;;;;;17.63;14.03;;;;;;;4.21;100.00;99718.38;5055113;28;20199;-71
2020/12/06 03:22:19;;;;;;;18.80;15.27;;;;;;;4.22;100.00;99709.25;5001069;28;20251;-71
2020/12/06 03:24:45;;;;;;;19.60;14.47;;;;;;;4.14;100.00;99716.13;5049474;28;20242;-71
2020/12/06 03:27:11;;;;;;;18.87;15.10;;;;;;;4.12;100.00;99713.72;5051380;28;20226;-71
2020/12/06 03:29:39;;;;;;;19.77;15.10;;;;;;;4.10;100.00;99704.28;5089981;28;20193;-70
2020/12/06 03:32:04;;;;;;;19.40;15.27;;;;;;;4.01;100.00;99703.13;5072780;28;20232;-71
2020/12/06 03:34:32;;;;;;;19.53;15.60;;;;;;;3.93;100.00;99692.84;5055978;28;20182;-71
2020/12/06 03:36:58;;;;;;;19.77;15.73;;;;;;;3.95;100.00;99690.69;5086501;28;20326;-71
2020/12/06 03:39:23;;;;;;;20.63;15.63;;;;;;;3.93;100.00;99695.53;5056274;28;20186;-71
2020/12/06 03:41:49;;;;;;;21.10;15.73;;;;;;;3.92;100.00;99696.59;5056344;28;20225;-70
2020/12/06 03:44:14;;;;;;;21.30;15.70;;;;;;;4.02;100.00;99685.94;5069432;28;20229;-71
2020/12/06 03:46:40;;;;;;;20.00;15.87;;;;;;;3.99;100.00;99689.97;5052030;28;20230;-71
2020/12/06 03:49:08;;;;;;;23.20;16.07;;;;;;;3.91;100.00;99692.28;5036724;28;20186;-70
2020/12/06 03:51:33;;;;;;;23.90;16.47;;;;;;;3.97;100.00;99675.16;5035726;28;20222;-71
2020/12/06 03:54:04;;;;;;;21.80;16.63;;;;;;;3.91;100.00;99668.13;5077684;28;20187;-71
2020/12/06 03:56:29;;;;;;;22.50;15.60;;;;;;;3.87;100.00;99650.88;5041601;28;20231;-70
2020/12/06 03:58:58;;;;;;;22.20;16.33;;;;;;;3.80;100.00;99644.91;5031955;28;20180;-70
2020/12/06 04:01:23;;;;;;;22.50;16.17;;;;;;;3.82;100.00;99636.59;5052024;28;20649;-71
2020/12/06 04:03:49;;;;;;;23.60;17.10;;;;;;;3.83;100.00;99625.63;5070406;28;20187;-70
2020/12/06 04:06:14;;;;;;;23.70;16.50;;;;;;;3.84;100.00;99624.53;5051853;28;20210;-71
2020/12/06 04:08:40;;;;;;;22.43;17.03;;;;;;;3.84;100.00;99635.28;5069310;28;20563;-71
2020/12/06 04:11:06;;;;;;;23.90;17.77;;;;;;;4.00;100.00;99645.91;5060218;28;20223;-70
2020/12/06 04:13:34;;;;;;;26.03;18.33;;;;;;;3.99;100.00;99638.94;5069942;28;20179;-71
2020/12/06 04:16:02;;;;;;;24.97;18.20;;;;;;;3.91;100.00;99631.31;5052291;28;20621;-71
2020/12/06 04:18:30;;;;;;;24.03;17.33;;;;;;;4.03;100.00;99644.56;5036639;28;20194;-72
2020/12/06 04:20:56;;;;;;;23.27;17.53;;;;;;;4.10;100.00;99643.31;5036372;28;20219;-70
2020/12/06 04:23:24;;;;;;;25.90;17.70;;;;;;;3.97;100.00;99626.81;5061494;28;20194;-71
2020/12/06 04:25:52;;;;;;;24.77;17.63;;;;;;;3.91;100.00;99619.78;5050286;28;20273;-70
2020/12/06 04:28:20;;;;;;;20.80;16.50;;;;;;;4.00;100.00;99626.31;5090252;28;20193;-70
2020/12/06 04:30:46;;;;;;;22.47;16.33;;;;;;;4.11;100.00;99609.22;5072315;28;20866;-71
2020/12/06 04:33:16;;;;;;;24.23;17.57;;;;;;;4.10;100.00;99615.63;5072321;28;20212;-71
2020/12/06 04:35:42;;;;;;;25.87;17.90;;;;;;;4.13;100.00;99615.94;5071856;28;20226;-71
2020/12/06 04:38:10;;;;;;;22.47;17.17;;;;;;;4.21;100.00;99615.47;5041928;28;20199;-71
2020/12/06 04:40:35;;;;;;;25.83;16.63;;;;;;;4.13;100.00;99632.06;5038322;28;20301;-71
2020/12/06 04:43:01;;;;;;;21.53;16.63;;;;;;;4.24;100.00;99621.13;5037149;28;20240;-71
2020/12/06 04:45:27;;;;;;;21.63;16.37;;;;;;;4.22;99.93;99612.53;5031422;28;20231;-71
2020/12/06 04:48:03;;;;;;;23.47;17.70;;;;;;;4.32;99.58;99611.78;5032579;28;20242;-71
2020/12/06 04:50:39;;;;;;;25.37;17.33;;;;;;;4.26;99.15;99618.19;5019188;28;20617;-71
2020/12/06 04:53:08;;;;;;;22.40;16.53;;;;;;;4.20;99.73;99623.78;5068316;28;20190;-71
2020/12/06 04:55:34;;;;;;;22.53;16.40;;;;;;;4.20;100.00;99633.47;5031626;28;20724;-71
2020/12/06 04:58:03;;;;;;;23.33;16.40;;;;;;;4.35;99.25;99633.56;5048957;28;20176;-70
2020/12/06 05:00:35;;;;;;;26.03;17.40;;;;;;;4.36;98.85;99632.53;5048482;28;20245;-71
2020/12/06 05:03:06;;;;;;;22.37;17.10;;;;;;;4.20;99.29;99625.41;5050084;28;20191;-71
2020/12/06 05:05:39;;;;;;;24.63;16.93;;;;;;;4.38;99.04;99638.44;4994733;28;20668;-70
2020/12/06 05:08:09;;;;;;;23.13;16.90;;;;;;;4.43;98.78;99635.81;5016000;28;20742;-71
2020/12/06 05:10:37;;;;;;;21.63;16.53;;;;;;;4.48;98.56;99637.72;5032261;28;20219;-71
2020/12/06 05:13:03;;;;;;;24.43;17.07;;;;;;;4.46;98.36;99635.28;4998458;28;20184;-71
2020/12/06 05:15:29;;;;;;;23.67;17.13;;;;;;;4.46;98.31;99623.72;5035175;28;20283;-71
2020/12/06 05:17:55;;;;;;;23.27;16.57;;;;;;;4.38;98.84;99610.78;5035808;28;20649;-71
2020/12/06 05:20:23;;;;;;;25.30;17.90;;;;;;;4.31;99.11;99607.50;5024212;28;20225;-71
2020/12/06 05:22:48;;;;;;;25.10;17.93;;;;;;;4.20;99.90;99607.69;5032332;28;20181;-71
2020/12/06 05:25:14;;;;;;;24.33;17.17;;;;;;;4.12;100.00;99605.44;5031001;28;20215;-71
2020/12/06 05:27:43;;;;;;;25.67;17.63;;;;;;;4.13;100.00;99607.06;5068758;28;20195;-70
2020/12/06 05:30:09;;;;;;;26.77;18.20;;;;;;;4.02;100.00;99611.53;5050784;28;20658;-71
2020/12/06 05:32:35;;;;;;;24.07;17.80;;;;;;;4.14;100.00;99609.50;5032139;28;20233;-70
2020/12/06 05:35:00;;;;;;;26.23;18.47;;;;;;;4.10;100.00;99599.53;5016863;28;20176;-71
2020/12/06 05:37:27;;;;;;;25.67;18.47;;;;;;;3.94;100.00;99593.22;5053473;28;20231;-71
2020/12/06 05:40:01;;;;;;;26.53;19.20;;;;;;;3.99;100.00;99593.28;5038038;28;20192;-71
2020/12/06 05:42:27;;;;;;;28.40;18.73;;;;;;;3.89;100.00;99584.31;5045928;28;20211;-71
2020/12/06 05:44:58;;;;;;;27.43;18.67;;;;;;;3.89;100.00;99584.31;5036652;28;20200;-71
2020/12/06 05:47:26;;;;;;;26.87;18.23;;;;;;;3.87;100.00;99570.34;5020732;28;20227;-71
2020/12/06 05:49:54;;;;;;;26.40;18.17;;;;;;;4.02;100.00;99578.50;5050492;28;20199;-71
2020/12/06 05:52:20;;;;;;;30.53;19.93;;;;;;;3.96;100.00;99574.19;5011551;28;20759;-72
2020/12/06 05:54:48;;;;;;;27.27;19.50;;;;;;;3.92;100.00;99578.44;5042530;28;20194;-71
2020/12/06 05:57:16;;;;;;;26.67;19.83;;;;;;;4.01;100.00;99584.94;5077636;28;20313;-71
2020/12/06 05:59:42;;;;;;;31.77;20.83;;;;;;;4.11;100.00;99587.72;5076878;28;20179;-71
2020/12/06 06:02:08;;;;;;;29.33;20.17;;;;;;;4.10;100.00;99576.16;5090939;28;20218;-71
2020/12/06 06:04:40;;;;;;;28.83;20.03;;;;;;;4.10;100.00;99586.88;5058163;28;20206;-71
2020/12/06 06:07:19;;;;;;;30.70;20.37;;;;;;;3.97;100.00;99567.72;5070452;28;20279;-71
2020/12/06 06:09:47;;;;;;;30.87;19.87;;;;;;;4.04;100.00;99565.63;5061199;28;20186;-71
2020/12/06 06:12:27;;;;;;;31.10;20.80;;;;;;;3.88;100.00;99556.66;5038317;28;20261;-71
2020/12/06 06:14:54;;;;;;;31.33;21.40;;;;;;;3.88;100.00;99547.78;5034143;28;20179;-71
2020/12/06 06:17:20;;;;;;;28.73;19.97;;;;;;;3.93;100.00;99555.88;5069611;28;20234;-71
2020/12/06 06:19:45;;;;;;;27.97;19.83;;;;;;;3.97;100.00;99555.09;5019271;28;20187;-71
2020/12/06 06:22:15;;;;;;;30.83;20.43;;;;;;;4.01;100.00;99566.13;5005713;28;20227;-71
2020/12/06 06:24:43;;;;;;;29.27;20.80;;;;;;;4.07;100.00;99565.13;5033655;28;20264;-71
2020/12/06 06:27:08;;;;;;;30.90;21.17;;;;;;;4.04;100.00;99577.19;5017664;28;20238;-70
2020/12/06 06:29:35;;;;;;;30.07;20.87;;;;;;;4.05;100.00;99588.75;5051234;28;20164;-71
2020/12/06 06:32:01;;;;;;;30.80;21.37;;;;;;;4.06;100.00;99583.09;5065790;28;20222;-71
2020/12/06 06:34:30;;;;;;;29.10;21.17;;;;;;;4.18;100.00;99578.38;5090880;28;20182;-72
2020/12/06 06:36:55;;;;;;;30.20;20.63;;;;;;;4.20;100.00;99588.88;5054606;28;20234;-71
2020/12/06 06:39:24;;;;;;;26.57;19.60;;;;;;;4.13;100.00;99585.59;5056756;28;20265;-71
2020/12/06 06:42:24;;;;;;;30.63;21.20;;;;;;;4.04;100.00;99592.50;5057885;28;20257;-71
2020/12/06 06:44:49;;;;;;;29.73;20.97;;;;;;;4.11;100.00;99585.03;5021868;28;20212;-71
2020/12/06 06:47:15;;;;;;;28.67;20.50;;;;;;;4.09;100.00;99584.50;5031641;28;20266;-71
2020/12/06 06:49:54;;;;;;;28.50;19.70;;;;;;;4.14;100.00;99584.50;5016268;28;20184;-71
2020/12/06 06:52:23;;;;;;;30.40;21.10;;;;;;;4.07;100.00;99575.88;5069820;28;20219;-70
2020/12/06 06:54:52;;;;;;;30.50;20.23;;;;;;;4.09;100.00;99574.53;5037262;28;20244;-71
2020/12/06 06:57:19;;;;;;;31.37;20.53;;;;;;;4.16;100.00;99563.56;5053581;28;20234;-71
2020/12/06 06:59:48;;;;;;;31.63;21.87;;;;;;;4.11;100.00;99560.88;5053934;28;20186;-71
2020/12/06 07:02:36;;;;;;;31.50;20.80;;;;;;;4.05;100.00;99543.09;5017568;28;20246;-69
2020/12/06 07:05:22;;;;;;;31.23;20.90;;;;;;;3.90;100.00;99526.84;5053145;28;20269;-70
2020/12/06 07:07:51;;;;;;;29.77;19.83;;;;;;;4.02;100.00;99530.16;5070027;28;20848;-70
2020/12/06 07:10:20;;;;;;;30.63;19.77;;;;;;;3.98;100.00;99529.06;5053276;28;20533;-70
2020/12/06 07:12:49;;;;;;;30.17;20.40;;;;;;;3.99;100.00;99536.88;5053639;28;20229;-70
2020/12/06 07:15:16;;;;;;;27.97;19.87;;;;;;;4.10;100.00;99527.00;5035936;28;20197;-70
2020/12/06 07:17:42;;;;;;;29.40;19.80;;;;;;;4.23;100.00;99535.41;5037330;28;20688;-70
2020/12/06 07:20:09;;;;;;;29.10;20.27;;;;;;;4.25;100.00;99530.59;5069279;28;20191;-70
2020/12/06 07:22:35;;;;;;;28.20;20.20;;;;;;;4.12;100.00;99519.47;5015109;28;20180;-71
2020/12/06 07:25:05;;;;;;;28.50;20.33;;;;;;;4.13;100.00;99521.91;5048023;28;20692;-71
2020/12/06 07:27:31;;;;;;;30.37;20.83;;;;;;;4.13;100.00;99513.06;5033374;28;20234;-71
2020/12/06 07:29:57;;;;;;;30.40;20.93;;;;;;;4.13;100.00;99532.66;5033395;28;20172;-71
2020/12/06 07:32:23;;;;;;;28.67;20.33;;;;;;;4.23;100.00;99548.84;5016232;28;20637;-71
2020/12/06 07:34:58;;;;;;;32.07;21.10;;;;;;;4.43;100.00;99557.88;5050383;28;20290;-71
2020/12/06 07:37:26;;;;;;;30.67;21.67;;;;;;;4.44;100.00;99564.84;5045187;28;20223;-71
2020/12/06 07:39:52;;;;;;;31.40;21.30;;;;;;;4.45;100.00;99561.09;5056452;28;20199;-71
2020/12/06 07:42:26;;;;;;;29.10;20.60;;;;;;;4.40;100.00;99557.56;5066889;28;20226;-71
2020/12/06 07:44:53;;;;;;;29.20;19.70;;;;;;;4.55;100.00;99566.53;5052391;28;20206;-71
2020/12/06 07:47:19;;;;;;;30.90;21.40;;;;;;;4.67;99.71;99565.25;5052598;28;20703;-71
2020/12/06 07:49:46;;;;;;;28.00;20.10;;;;;;;4.66;99.78;99562.81;5069581;28;20257;-71
2020/12/06 07:52:25;;;;;;;28.20;19.53;;;;;;;4.63;99.23;99560.66;5034642;28;20226;-70
2020/12/06 07:54:58;;;;;;;29.23;20.77;;;;;;;4.57;99.79;99547.44;5044240;28;20183;-71
2020/12/06 07:57:28;;;;;;;31.37;20.97;;;;;;;4.37;100.00;99545.44;5028079;28;20211;-71
2020/12/06 07:59:56;;;;;;;27.30;20.57;;;;;;;4.29;100.00;99532.50;5029525;28;20661;-71
2020/12/06 08:02:24;;;;;;;27.80;20.30;;;;;;;4.44;100.00;99542.53;5012765;28;20219;-71
2020/12/06 08:04:52;;;;;;;30.87;20.10;;;;;;;4.56;100.00;99546.66;5012864;28;20220;-71
2020/12/06 08:07:21;;;;;;;28.40;20.10;;;;;;;4.49;100.00;99527.25;5035447;28;20323;-72
2020/12/06 08:09:47;;;;;;;28.40;20.07;;;;;;;4.43;100.00;99522.94;5032140;28;20246;-71
2020/12/06 08:12:12;;;;;;;28.07;19.93;;;;;;;4.31;100.00;99514.25;5047676;28;20219;-71
2020/12/06 08:14:40;;;;;;;31.70;21.07;;;;;;;4.32;100.00;99504.28;5051991;28;20194;-72
2020/12/06 08:17:06;;;;;;;30.67;20.83;;;;;;;4.28;100.00;99503.19;5069034;28;20219;-71
2020/12/06 08:19:34;;;;;;;31.23;22.13;;;;;;;4.33;100.00;99504.03;5052620;28;20684;-71
2020/12/06 08:22:05;;;;;;;52.87;40.70;;;;;;;4.41;100.00;99508.91;5036802;28;20291;-71
2020/12/06 08:24:32;;;;;;;52.90;39.43;;;;;;;4.46;100.00;99500.09;5025300;28;20207;-72
2020/12/06 08:27:00;;;;;;;31.30;22.63;;;;;;;4.58;100.00;99498.81;5033006;28;20215;-71
2020/12/06 08:29:43;;;;;;;29.47;21.17;;;;;;;4.41;100.00;99492.78;5049953;28;20699;-71
2020/12/06 08:32:09;;;;;;;27.23;20.10;;;;;;;4.38;100.00;99487.94;5068302;28;20229;-71
2020/12/06 08:34:35;;;;;;;31.67;20.63;;;;;;;4.43;100.00;99479.94;5074421;28;20158;-71
2020/12/06 08:37:19;;;;;;;30.40;20.20;;;;;;;4.50;100.00;99480.47;5087979;28;20526;-70
2020/12/06 08:39:48;;;;;;;30.20;20.60;;;;;;;4.41;100.00;99465.91;5043229;28;20185;-70
2020/12/06 08:42:19;;;;;;;29.50;20.60;;;;;;;4.35;100.00;99466.97;5053200;28;20302;-72
2020/12/06 08:44:58;;;;;;;28.77;20.70;;;;;;;4.48;100.00;99471.88;5052539;28;20235;-71
2020/12/06 08:47:25;;;;;;;29.50;19.83;;;;;;;4.65;100.00;99477.84;5053855;28;20279;-71
2020/12/06 08:50:17;;;;;;;29.83;21.00;;;;;;;4.73;100.00;99480.06;5056196;28;20179;-71
2020/12/06 08:52:45;;;;;;;30.33;20.27;;;;;;;4.87;100.00;99475.78;5051877;28;20242;-72
2020/12/06 08:55:30;;;;;;;28.40;20.27;;;;;;;4.88;99.10;99477.41;5054401;28;20179;-72
2020/12/06 08:57:56;;;;;;;30.80;21.73;;;;;;;5.05;98.63;99482.31;5060129;28;20223;-69
2020/12/06 09:00:22;;;;;;;29.60;19.97;;;;;;;5.20;98.04;99481.50;5075663;28;20185;-70
2020/12/06 09:02:47;;;;;;;29.27;20.47;;;;;;;5.32;97.23;99474.81;5076363;28;20170;-70
2020/12/06 09:05:13;;;;;;;26.67;19.17;;;;;;;5.05;98.05;99463.47;5057924;28;20214;-70
2020/12/06 09:07:40;;;;;;;29.00;19.77;;;;;;;4.94;99.04;99454.81;5083785;28;20289;-69
2020/12/06 09:10:06;;;;;;;29.77;20.20;;;;;;;4.68;100.00;99429.75;5064084;28;20197;-69
2020/12/06 09:12:33;;;;;;;27.77;20.10;;;;;;;4.54;100.00;99427.81;5038636;28;20218;-71
2020/12/06 09:15:07;;;;;;;29.80;20.37;;;;;;;4.65;100.00;99446.41;5039471;28;20166;-71
2020/12/06 09:17:33;;;;;;;28.53;20.33;;;;;;;4.76;100.00;99452.63;5040105;28;20214;-70
2020/12/06 09:19:59;;;;;;;27.40;19.43;;;;;;;4.87;100.00;99446.19;5039222;28;20946;-71
2020/12/06 09:22:27;;;;;;;28.17;20.30;;;;;;;4.97;99.41;99450.53;5051852;28;20262;-70
2020/12/06 09:24:55;;;;;;;28.47;20.30;;;;;;;5.09;98.94;99445.72;5051426;28;20215;-70
2020/12/06 09:27:21;;;;;;;28.47;19.97;;;;;;;5.20;98.08;99428.53;5037088;28;20280;-71
2020/12/06 09:29:46;;;;;;;31.73;20.23;;;;;;;5.05;98.60;99415.06;5039003;28;20183;-71
2020/12/06 09:32:15;;;;;;;31.03;20.47;;;;;;;5.13;98.91;99436.03;5053451;28;20234;-70
2020/12/06 09:34:41;;;;;;;29.00;19.53;;;;;;;5.20;98.66;99457.28;5017390;28;20179;-71
2020/12/06 09:37:09;;;;;;;27.80;20.27;;;;;;;5.29;97.72;99453.81;5049823;28;20214;-72
2020/12/06 09:39:35;;;;;;;28.23;20.30;;;;;;;5.35;96.66;99453.56;5073585;28;20190;-71
2020/12/06 09:42:00;;;;;;;28.03;20.03;;;;;;;5.40;96.58;99450.88;5071537;28;20219;-71
2020/12/06 09:44:26;;;;;;;52.43;36.17;;;;;;;5.51;95.78;99452.50;5073190;28;20195;-72
2020/12/06 09:46:54;;;;;;;27.53;20.03;;;;;;;5.52;96.15;99445.22;5039065;28;20230;-72
2020/12/06 09:49:20;;;;;;;26.07;19.57;;;;;;;5.69;95.30;99437.66;5073170;28;20179;-72
2020/12/06 09:51:48;;;;;;;28.53;19.77;;;;;;;5.54;95.83;99445.75;5059746;28;20289;-71
2020/12/06 09:54:14;;;;;;;25.63;19.27;;;;;;;5.65;95.27;99460.84;5036038;28;20675;-72
2020/12/06 09:56:42;;;;;;;26.07;19.17;;;;;;;5.56;95.37;99454.38;5034140;28;20220;-72
2020/12/06 09:59:07;;;;;;;27.40;19.60;;;;;;;5.67;95.36;99443.31;5051561;28;20691;-73
2020/12/06 10:01:36;;;;;;;28.90;20.33;;;;;;;5.79;95.05;99450.09;5061576;28;20234;-74
2020/12/06 10:04:04;;;;;;;27.00;19.20;;;;;;;5.74;95.15;99458.16;5054628;28;20220;-71
2020/12/06 10:06:32;;;;;;;27.33;19.30;;;;;;;5.57;95.79;99446.03;5037921;28;20223;-72
2020/12/06 10:09:00;;;;;;;25.53;18.67;;;;;;;5.85;94.50;99467.84;5015451;28;20200;-72
2020/12/06 10:11:28;;;;;;;26.80;19.90;;;;;;;5.88;94.14;99464.63;5028549;28;20218;-72
2020/12/06 10:13:55;;;;;;;27.20;18.60;;;;;;;5.95;93.87;99465.16;5071145;28;20191;-72
2020/12/06 10:16:21;;;;;;;26.37;19.53;;;;;;;6.04;93.60;99463.50;5042625;28;20215;-75
2020/12/06 10:18:49;;;;;;;26.27;19.53;;;;;;;6.02;93.68;99467.56;5034645;28;20191;-75
2020/12/06 10:21:15;;;;;;;27.03;19.77;;;;;;;5.86;94.38;99460.56;5050549;28;20373;-74
2020/12/06 10:23:41;;;;;;;25.80;20.23;;;;;;;5.96;93.52;99466.75;5052837;28;20670;-72
2020/12/06 10:26:07;;;;;;;25.60;18.77;;;;;;;5.96;93.59;99474.06;5080481;28;20230;-72
2020/12/06 10:28:35;;;;;;;27.27;20.10;;;;;;;6.06;93.89;99465.94;5074470;28;20170;-72
2020/12/06 10:31:01;;;;;;;25.90;19.17;;;;;;;6.17;93.55;99463.78;5040801;28;20226;-72
2020/12/06 10:33:29;;;;;;;25.17;19.03;;;;;;;6.17;92.77;99466.47;5074595;28;20190;-73
2020/12/06 10:35:57;;;;;;;26.47;19.63;;;;;;;6.24;92.68;99458.09;5057258;28;20230;-72
2020/12/06 10:38:23;;;;;;;25.40;18.63;;;;;;;6.34;92.51;99445.41;5056224;28;20248;-71
2020/12/06 10:40:49;;;;;;;26.10;19.07;;;;;;;6.43;92.23;99453.72;5056468;28;20231;-72
2020/12/06 10:43:15;;;;;;;28.37;19.43;;;;;;;6.41;92.27;99458.56;5054388;28;20639;-72
2020/12/06 10:45:41;;;;;;;27.33;19.00;;;;;;;6.29;93.40;99450.00;5049766;28;20257;-71
2020/12/06 10:48:06;;;;;;;26.47;20.10;;;;;;;6.30;91.82;99440.81;5034478;28;20195;-71
2020/12/06 10:50:32;;;;;;;25.53;18.57;;;;;;;5.99;93.66;99427.69;5017378;28;20215;-72
2020/12/06 10:52:58;;;;;;;26.47;19.40;;;;;;;5.83;94.34;99402.66;5024871;28;20191;-72
2020/12/06 10:55:26;;;;;;;24.60;18.37;;;;;;;5.82;95.14;99389.47;5009644;28;20219;-74
2020/12/06 10:57:54;;;;;;;27.77;20.13;;;;;;;5.67;96.11;99397.53;5048694;28;20187;-71
2020/12/06 11:00:20;;;;;;;29.30;20.73;;;;;;;5.75;95.99;99395.16;5019783;28;20187;-74
2020/12/06 11:02:47;;;;;;;28.33;20.03;;;;;;;5.61;96.95;99387.06;5071160;28;20210;-71
2020/12/06 11:05:17;;;;;;;28.87;20.20;;;;;;;5.68;96.79;99382.19;5054487;28;20207;-72
2020/12/06 11:07:43;;;;;;;28.40;19.93;;;;;;;5.51;97.13;99368.22;5026715;28;20211;-72
2020/12/06 11:10:11;;;;;;;29.33;20.67;;;;;;;5.45;97.71;99361.22;5044579;28;20562;-71
2020/12/06 11:12:38;;;;;;;27.90;20.77;;;;;;;5.60;97.24;99353.91;5049306;28;20202;-71
2020/12/06 11:15:03;;;;;;;28.37;20.37;;;;;;;5.72;96.84;99362.53;5051761;28;20183;-72
2020/12/06 11:17:30;;;;;;;27.23;20.50;;;;;;;5.60;96.67;99369.28;5031002;28;20225;-72
2020/12/06 11:19:57;;;;;;;28.30;21.03;;;;;;;5.59;97.05;99381.16;5047038;28;20187;-71
2020/12/06 11:22:23;;;;;;;27.10;20.63;;;;;;;5.82;95.80;99374.13;5042732;28;20211;-72